PWSweather.com
Personal Weather Stations
Station Observations
PHMDWX
Perry Hall, MD 21236

Perry Hall, MD 21236

Lat: 39.418318, Lon: -76.490039

Elevation: 305

Station Type: Davis Vantage Pro

Latest ConditionsUpdated 1:00:03 PM EDT Saturday, Oct 1, 2016
Currently Today's Max Today's Min Today's Average
Temperature 59.9°F15.5°C 61.0°F16.1°C 58.1°F14.5°C 59.5°F15.3°C
Dew Point 59.6°F15.3°C 59.6°F15.3°C 57.9°F14.4°C 58.7°F14.8°C
Winds 2.8 mph N4.5 kmh N 7.7 mph NNE12.4 kmh NNE - 3.6 mph 5.8 kmh
Wind Gusts 5.0 mph8.0 kmh 13.0 mph20.9 kmh - -
Humidity 99% 99% 93% 97%
Pressure 30.10 in1019.3 mb 30.12 in1020.0 mb 30.09 in1019.0 mb -
Precipitation - 0.10 in2.5 mm - -
Hour Temp Dew Point Humidity Winds Wind Gusts Pressure Precip Precip Rate Daily Precip Total
01:00 PM 59.9°F15.5°C 59.6°F15.3°C 99% 2.8 mph N4.5 kmh N 5.0 mph8.0 kmh 30.10 in1019.3 mb - 0.00 in0.0 mm 0.10 in2.5 mm
12:30 PM 59.6°F15.3°C 59.3°F15.2°C 99% 3.9 mph NE6.3 kmh NE 8.0 mph12.9 kmh 30.10 in1019.3 mb - 0.02 in0.5 mm 0.10 in2.5 mm
12:00 PM 59.3°F15.2°C 59.0°F15.0°C 99% 0.7 mph NE1.1 kmh NE 1.0 mph1.6 kmh 30.11 in1019.6 mb - 0.02 in0.5 mm 0.08 in2.0 mm
11:30 AM 59.0°F15.0°C 58.8°F14.9°C 99% 2.0 mph ENE3.2 kmh ENE 6.0 mph9.7 kmh 30.11 in1019.6 mb - 0.00 in0.0 mm 0.06 in1.5 mm
11:00 AM 59.0°F15.0°C 58.7°F14.8°C 99% 2.3 mph NE3.7 kmh NE 5.0 mph8.0 kmh 30.12 in1020.0 mb - 0.00 in0.0 mm 0.06 in1.5 mm
10:30 AM 59.0°F15.0°C 58.7°F14.8°C 99% 4.4 mph NNE7.1 kmh NNE 7.0 mph11.3 kmh 30.12 in1020.0 mb - 0.00 in0.0 mm 0.06 in1.5 mm
10:00 AM 58.7°F14.8°C 58.4°F14.7°C 99% 2.7 mph ENE4.3 kmh ENE 6.0 mph9.7 kmh 30.11 in1019.6 mb - 0.00 in0.0 mm 0.06 in1.5 mm
09:30 AM 58.4°F14.7°C 58.1°F14.5°C 99% 5.1 mph NNE8.2 kmh NNE 8.0 mph12.9 kmh 30.12 in1020.0 mb - 0.00 in0.0 mm 0.06 in1.5 mm
09:00 AM 58.1°F14.5°C 57.9°F14.4°C 99% 4.5 mph ENE7.2 kmh ENE 7.0 mph11.3 kmh 30.12 in1020.0 mb - 0.00 in0.0 mm 0.06 in1.5 mm
08:30 AM 58.4°F14.7°C 58.1°F14.5°C 99% 3.9 mph N6.3 kmh N 10.0 mph16.1 kmh 30.12 in1020.0 mb - 0.00 in0.0 mm 0.06 in1.5 mm
08:00 AM 58.4°F14.7°C 58.1°F14.5°C 99% 1.3 mph E2.1 kmh E 10.0 mph16.1 kmh 30.12 in1020.0 mb - 0.00 in0.0 mm 0.06 in1.5 mm
07:30 AM 58.4°F14.7°C 58.1°F14.5°C 99% 2.2 mph ENE3.5 kmh ENE 7.0 mph11.3 kmh 30.12 in1020.0 mb - 0.00 in0.0 mm 0.06 in1.5 mm
07:00 AM 58.6°F14.8°C 58.3°F14.6°C 99% 3.5 mph NE5.6 kmh NE 8.0 mph12.9 kmh 30.11 in1019.6 mb - 0.00 in0.0 mm 0.06 in1.5 mm
06:30 AM 58.9°F14.9°C 58.6°F14.8°C 99% 5.4 mph E8.7 kmh E 11.0 mph17.7 kmh 30.10 in1019.3 mb - 0.00 in0.0 mm 0.06 in1.5 mm
06:00 AM 59.0°F15.0°C 58.4°F14.7°C 98% 2.9 mph NE4.7 kmh NE 4.0 mph6.4 kmh 30.10 in1019.3 mb - 0.00 in0.0 mm 0.06 in1.5 mm
05:30 AM 59.2°F15.1°C 58.6°F14.8°C 98% 1.0 mph NE1.6 kmh NE 11.0 mph17.7 kmh 30.10 in1019.3 mb - 0.00 in0.0 mm 0.06 in1.5 mm
05:00 AM 59.3°F15.2°C 58.7°F14.8°C 98% 3.4 mph E5.5 kmh E 6.0 mph9.7 kmh 30.09 in1019.0 mb - 0.01 in0.3 mm 0.06 in1.5 mm
04:30 AM 59.5°F15.3°C 58.9°F14.9°C 98% 3.6 mph ENE5.8 kmh ENE 6.0 mph9.7 kmh 30.10 in1019.3 mb - 0.00 in0.0 mm 0.05 in1.3 mm
04:00 AM 59.6°F15.3°C 59.0°F15.0°C 98% 5.6 mph NE9.0 kmh NE 11.0 mph17.7 kmh 30.09 in1019.0 mb - 0.00 in0.0 mm 0.05 in1.3 mm
03:30 AM 59.9°F15.5°C 59.0°F15.0°C 97% 2.2 mph ENE3.5 kmh ENE 7.0 mph11.3 kmh 30.10 in1019.3 mb - 0.00 in0.0 mm 0.05 in1.3 mm
03:00 AM 60.3°F15.7°C 59.1°F15.1°C 96% 2.6 mph NE4.2 kmh NE 6.0 mph9.7 kmh 30.10 in1019.3 mb - 0.05 in1.3 mm 0.05 in1.3 mm
02:30 AM 60.7°F15.9°C 59.0°F15.0°C 94% 3.1 mph N5.0 kmh N 7.0 mph11.3 kmh 30.11 in1019.6 mb - 0.00 in0.0 mm 0.00 in0.0 mm
02:00 AM 60.9°F16.1°C 59.2°F15.1°C 94% 5.5 mph NNE8.9 kmh NNE 8.0 mph12.9 kmh 30.12 in1020.0 mb - 0.00 in0.0 mm 0.00 in0.0 mm
01:30 AM 61.0°F16.1°C 59.0°F15.0°C 93% 1.5 mph E2.4 kmh E 8.0 mph12.9 kmh 30.12 in1020.0 mb - 0.00 in0.0 mm 0.00 in0.0 mm
01:00 AM 60.9°F16.1°C 58.9°F14.9°C 93% 7.7 mph NNE12.4 kmh NNE 9.0 mph14.5 kmh 30.12 in1020.0 mb - 0.00 in0.0 mm 0.00 in0.0 mm
12:30 AM 60.9°F16.1°C 59.2°F15.1°C 94% 5.0 mph ENE8.0 kmh ENE 11.0 mph17.7 kmh 30.12 in1020.0 mb - 0.00 in0.0 mm 0.00 in0.0 mm
12:00 AM 60.9°F16.1°C 59.2°F15.1°C 94% 7.1 mph NE11.4 kmh NE 13.0 mph20.9 kmh 30.12 in1020.0 mb - 0.00 in0.0 mm 0.00 in0.0 mm